Paper Mill Village, Vermont
Current Conditions -  °F | °C
As of 3:32 PM on Wednesday 26 Nov 2014 (Local Time) from KDDH Reporting Station
Light Snow Light Snow  
Wind Chill: 25°   Ceiling: 1400
Heat Index: 32°   Visibility: 1mi
Dew Point: 29°   Wind: 8mph
Humidity: 88%   Direction: 360°N
Pressure: 29.96"   Gusts: NA
Location:  42.9246°N, 73.2476°W
Report Text: KDDH 262032Z AUTO 36007KT 1SM -SN BR FEW004 OVC014 00/M02 A2996 RMK AO2 P0002 T00001017
Loading
Personal Weather Stations






























Interactive Weather Map New forecast layout! Learn more

10-Day Weather Forecast

Advertisements
Track Severe Weather on mobile